createdAt,value
2016-06-28T00:00:00.920Z,1103
2016-06-28T00:00:30.932Z,1103
2016-06-28T00:01:00.944Z,1103
2016-06-28T00:01:30.959Z,1103
2016-06-28T00:02:00.968Z,1103
2016-06-28T00:02:30.999Z,1108
2016-06-28T00:03:01.002Z,1108
2016-06-28T00:03:31.022Z,1108
2016-06-28T00:04:01.054Z,1108
2016-06-28T00:04:31.083Z,1108
2016-06-28T00:05:01.063Z,1108
2016-06-28T00:05:31.075Z,1108
2016-06-28T00:06:01.090Z,1108
2016-06-28T00:06:31.120Z,1108
2016-06-28T00:07:01.150Z,1113
2016-06-28T00:07:31.134Z,1113
2016-06-28T00:08:01.173Z,1113
2016-06-28T00:08:31.173Z,1113
2016-06-28T00:09:01.184Z,1113
2016-06-28T00:09:31.186Z,1113
2016-06-28T00:10:01.211Z,1113
2016-06-28T00:10:31.221Z,1117
2016-06-28T00:11:01.246Z,1117
2016-06-28T00:11:31.266Z,1117
2016-06-28T00:12:01.272Z,1117
2016-06-28T00:12:31.283Z,1117
2016-06-28T00:13:01.299Z,1117
2016-06-28T00:13:31.315Z,1117
2016-06-28T00:14:01.362Z,1117
2016-06-28T00:14:31.344Z,1117
2016-06-28T00:15:01.349Z,1117
2016-06-28T00:15:31.379Z,1117
2016-06-28T00:16:01.393Z,1117
2016-06-28T00:16:31.397Z,1117
2016-06-28T00:17:01.419Z,1122
2016-06-28T00:17:31.429Z,1122
2016-06-28T00:18:01.440Z,1122
2016-06-28T00:18:31.454Z,1122
2016-06-28T00:19:01.477Z,1122
2016-06-28T00:19:31.483Z,1122
2016-06-28T00:20:01.495Z,1122
2016-06-28T00:20:31.515Z,1122
2016-06-28T00:21:01.538Z,1122
2016-06-28T00:21:31.542Z,1122
2016-06-28T00:22:01.559Z,1122
2016-06-28T00:22:31.569Z,1122
2016-06-28T00:23:01.592Z,1122
2016-06-28T00:23:31.615Z,1122
2016-06-28T00:24:01.646Z,1122
2016-06-28T00:24:31.654Z,1122
2016-06-28T00:25:01.654Z,1122
2016-06-28T00:25:31.666Z,1122
2016-06-28T00:26:01.677Z,1122
2016-06-28T00:26:31.691Z,1122
2016-06-28T00:27:01.719Z,1122
2016-06-28T00:27:31.733Z,1122
2016-06-28T00:28:01.732Z,1122
2016-06-28T00:28:31.753Z,1122
2016-06-28T00:29:01.770Z,1122
2016-06-28T00:29:31.783Z,1122
2016-06-28T00:30:01.820Z,1122
2016-06-28T00:30:31.814Z,1122
2016-06-28T00:31:01.825Z,1122
2016-06-28T00:31:31.834Z,1122
2016-06-28T00:32:01.868Z,1122
2016-06-28T00:32:31.874Z,1127
2016-06-28T00:33:01.886Z,1127
2016-06-28T00:33:31.895Z,1127
2016-06-28T00:34:01.922Z,1127
2016-06-28T00:34:31.922Z,1127
2016-06-28T00:35:01.947Z,1127
2016-06-28T00:35:31.960Z,1127
2016-06-28T00:36:01.975Z,1127
2016-06-28T00:36:31.996Z,1127
2016-06-28T00:37:01.997Z,1127
2016-06-28T00:37:32.017Z,1127
2016-06-28T00:38:02.022Z,1127
2016-06-28T00:38:32.042Z,1127
2016-06-28T00:39:02.065Z,1127
2016-06-28T00:39:32.074Z,1127
2016-06-28T00:40:02.097Z,1127
2016-06-28T00:40:32.102Z,1127
2016-06-28T00:41:02.122Z,1131
2016-06-28T00:41:32.132Z,1131
2016-06-28T00:42:02.148Z,1131
2016-06-28T00:42:32.174Z,1131
2016-06-28T00:43:02.181Z,1131
2016-06-28T00:43:32.203Z,1131
2016-06-28T00:44:02.214Z,1131
2016-06-28T00:44:32.226Z,1131
2016-06-28T00:45:02.243Z,1131
2016-06-28T00:45:32.246Z,1131
2016-06-28T00:46:02.299Z,1131
2016-06-28T00:46:32.296Z,1131
2016-06-28T00:47:02.291Z,1131
2016-06-28T00:47:32.303Z,1131
2016-06-28T00:48:02.331Z,1131
2016-06-28T00:48:32.326Z,1131
2016-06-28T00:49:02.357Z,1131
2016-06-28T00:49:32.407Z,1131
2016-06-28T00:50:02.391Z,1131
2016-06-28T00:50:32.397Z,1131
2016-06-28T00:51:02.411Z,1131
2016-06-28T00:51:32.450Z,1131
2016-06-28T00:52:02.442Z,1136
2016-06-28T00:52:32.476Z,1136
2016-06-28T00:53:02.471Z,1136
2016-06-28T00:53:32.487Z,1136
2016-06-28T00:54:02.510Z,1136
2016-06-28T00:54:32.540Z,1136
2016-06-28T00:55:02.533Z,1136
2016-06-28T00:55:32.538Z,1136
2016-06-28T00:56:02.553Z,1136
2016-06-28T00:56:32.573Z,1136
2016-06-28T00:57:02.594Z,1136
2016-06-28T00:57:32.614Z,1136
2016-06-28T00:58:02.613Z,1136
2016-06-28T00:58:32.635Z,1136
2016-06-28T00:59:02.644Z,1136
2016-06-28T00:59:32.655Z,1136
2016-06-28T01:00:02.678Z,1136
2016-06-28T01:00:32.691Z,1136
2016-06-28T01:01:02.719Z,1136
2016-06-28T01:01:32.727Z,1136
2016-06-28T01:02:02.763Z,1136
2016-06-28T01:02:32.747Z,1136
2016-06-28T01:03:02.762Z,1136
2016-06-28T01:03:32.781Z,1136
2016-06-28T01:04:02.812Z,1136
2016-06-28T01:04:32.804Z,1136
2016-06-28T01:05:02.223Z,1136
2016-06-28T01:05:32.837Z,1136
2016-06-28T01:06:02.873Z,1136
2016-06-28T01:06:32.866Z,1136
2016-06-28T01:07:02.888Z,1136
2016-06-28T01:07:32.895Z,1136
2016-06-28T01:08:02.914Z,1136
2016-06-28T01:08:32.916Z,1136
2016-06-28T01:09:02.942Z,1136
2016-06-28T01:09:32.956Z,1136
2016-06-28T01:10:02.984Z,1136
2016-06-28T01:10:32.977Z,1136
2016-06-28T01:11:02.986Z,1136
2016-06-28T01:11:33.013Z,1136
2016-06-28T01:12:03.024Z,1136
2016-06-28T01:12:33.041Z,1136
2016-06-28T01:13:03.092Z,1136
2016-06-28T01:13:33.070Z,1136
2016-06-28T01:14:03.084Z,1136
2016-06-28T01:14:33.098Z,1136
2016-06-28T01:15:03.110Z,1136
2016-06-28T01:15:33.128Z,1136
2016-06-28T01:16:03.144Z,1136
2016-06-28T01:16:33.158Z,1136
2016-06-28T01:17:03.168Z,1136
2016-06-28T01:17:33.181Z,1136
2016-06-28T01:18:03.198Z,1136
2016-06-28T01:18:33.239Z,1136
2016-06-28T01:19:03.220Z,1136
2016-06-28T01:19:33.243Z,1136
2016-06-28T01:20:03.278Z,1136
2016-06-28T01:20:33.282Z,1136
2016-06-28T01:21:03.311Z,1136
2016-06-28T01:21:33.299Z,1136
2016-06-28T01:22:03.315Z,1136
2016-06-28T01:22:33.336Z,1141
2016-06-28T01:23:03.338Z,1141
2016-06-28T01:23:33.367Z,1141
2016-06-28T01:24:03.374Z,1141
2016-06-28T01:24:33.393Z,1141
2016-06-28T01:25:03.409Z,1141
2016-06-28T01:25:33.435Z,1141
2016-06-28T01:26:03.436Z,1141
2016-06-28T01:26:33.443Z,1141
2016-06-28T01:27:03.451Z,1141
2016-06-28T01:27:33.499Z,1141
2016-06-28T01:28:03.495Z,1141
2016-06-28T01:28:33.505Z,1141
2016-06-28T01:29:03.519Z,1141
2016-06-28T01:29:33.531Z,1141
2016-06-28T01:30:03.551Z,1141
2016-06-28T01:30:33.563Z,1141
2016-06-28T01:31:03.577Z,1141
2016-06-28T01:31:33.626Z,1141
2016-06-28T01:32:03.608Z,1141
2016-06-28T01:32:33.623Z,1141
2016-06-28T01:33:03.631Z,1141
2016-06-28T01:33:33.648Z,1141
2016-06-28T01:34:03.667Z,1141
2016-06-28T01:34:33.680Z,1141
2016-06-28T01:35:03.698Z,1141
2016-06-28T01:35:33.709Z,1141
2016-06-28T01:36:03.728Z,1141
2016-06-28T01:36:33.748Z,1141
2016-06-28T01:37:03.758Z,1141
2016-06-28T01:37:33.766Z,1141
2016-06-28T01:38:03.782Z,1141
2016-06-28T01:38:33.786Z,1146
2016-06-28T01:39:03.825Z,1146
2016-06-28T01:39:33.824Z,1146
2016-06-28T01:40:03.839Z,1146
2016-06-28T01:40:33.874Z,1146
2016-06-28T01:41:03.867Z,1146
2016-06-28T01:41:33.881Z,1146
2016-06-28T01:42:03.894Z,1146
2016-06-28T01:42:33.927Z,1146
2016-06-28T01:43:03.925Z,1146
2016-06-28T01:43:33.963Z,1146
2016-06-28T01:44:03.982Z,1146
2016-06-28T01:44:33.975Z,1146
2016-06-28T01:45:03.981Z,1146
2016-06-28T01:45:33.993Z,1146
2016-06-28T01:46:04.013Z,1146
2016-06-28T01:46:34.027Z,1146
2016-06-28T01:47:04.047Z,1146
2016-06-28T01:47:34.051Z,1151
2016-06-28T01:48:04.070Z,905
2016-06-28T01:48:34.088Z,909
2016-06-28T01:49:04.091Z,909
2016-06-28T01:49:34.110Z,909
2016-06-28T01:50:04.123Z,909
2016-06-28T01:50:34.151Z,909
2016-06-28T01:51:04.385Z,909
2016-06-28T01:51:34.178Z,909
2016-06-28T01:52:04.190Z,909
2016-06-28T01:52:34.201Z,909
2016-06-28T01:53:04.208Z,909
2016-06-28T01:53:34.225Z,909
2016-06-28T01:54:04.252Z,909
2016-06-28T01:54:33.662Z,909
2016-06-28T01:55:04.281Z,909
2016-06-28T01:55:34.282Z,909
2016-06-28T01:56:04.305Z,909
2016-06-28T01:56:34.327Z,909
2016-06-28T01:57:04.326Z,909
2016-06-28T01:57:34.364Z,909
2016-06-28T01:58:04.369Z,909
2016-06-28T01:58:34.383Z,909
2016-06-28T01:59:04.385Z,909
2016-06-28T01:59:34.407Z,909
2016-06-28T02:00:04.429Z,909
2016-06-28T02:00:34.431Z,909
2016-06-28T02:01:04.451Z,909
2016-06-28T02:01:34.461Z,909
2016-06-28T02:02:04.475Z,909
2016-06-28T02:02:34.494Z,909
2016-06-28T02:03:04.517Z,909
2016-06-28T02:03:34.528Z,909
2016-06-28T02:04:04.531Z,909
2016-06-28T02:04:34.547Z,909
2016-06-28T02:05:04.561Z,909
2016-06-28T02:05:34.595Z,909
2016-06-28T02:06:04.590Z,909
2016-06-28T02:06:34.611Z,909
2016-06-28T02:07:04.628Z,909
2016-06-28T02:07:34.636Z,919
2016-06-28T02:08:04.658Z,919
2016-06-28T02:08:34.669Z,919
2016-06-28T02:09:04.073Z,919
2016-06-28T02:09:34.698Z,919
2016-06-28T02:10:04.707Z,919
2016-06-28T02:10:34.718Z,919
2016-06-28T02:11:04.733Z,919
2016-06-28T02:11:34.767Z,919
2016-06-28T02:12:04.178Z,919
2016-06-28T02:12:34.786Z,919
2016-06-28T02:13:04.799Z,919
2016-06-28T02:13:34.821Z,919
2016-06-28T02:14:04.829Z,919
2016-06-28T02:14:34.825Z,919
2016-06-28T02:15:04.844Z,919
2016-06-28T02:15:34.873Z,919
2016-06-28T02:16:04.892Z,919
2016-06-28T02:16:34.886Z,919
2016-06-28T02:17:04.909Z,919
2016-06-28T02:17:34.937Z,919
2016-06-28T02:18:04.943Z,919
2016-06-28T02:18:34.946Z,919
2016-06-28T02:19:04.964Z,919
2016-06-28T02:19:35.006Z,924
2016-06-28T02:20:04.990Z,924
2016-06-28T02:20:35.006Z,924
2016-06-28T02:21:05.018Z,924
2016-06-28T02:21:35.041Z,924
2016-06-28T02:22:05.079Z,924
2016-06-28T02:22:35.066Z,924
2016-06-28T02:23:05.083Z,924
2016-06-28T02:23:35.097Z,924
2016-06-28T02:24:05.125Z,924
2016-06-28T02:24:35.151Z,924
2016-06-28T02:25:05.147Z,929
2016-06-28T02:25:35.159Z,934
2016-06-28T02:26:05.192Z,934
2016-06-28T02:26:35.183Z,939
2016-06-28T02:27:05.198Z,939
2016-06-28T02:27:35.213Z,939
2016-06-28T02:28:05.228Z,944
2016-06-28T02:28:35.253Z,944
2016-06-28T02:29:05.255Z,944
2016-06-28T02:29:35.266Z,944
2016-06-28T02:30:05.283Z,944
2016-06-28T02:30:35.300Z,944
2016-06-28T02:31:05.326Z,944
2016-06-28T02:31:35.362Z,944
2016-06-28T02:32:05.348Z,944
2016-06-28T02:32:35.370Z,944
2016-06-28T02:33:05.384Z,944
2016-06-28T02:33:35.391Z,944
2016-06-28T02:34:05.410Z,944
2016-06-28T02:34:35.412Z,944
2016-06-28T02:35:05.434Z,944
2016-06-28T02:35:35.446Z,944
2016-06-28T02:36:05.449Z,944
2016-06-28T02:36:35.478Z,944
2016-06-28T02:37:05.489Z,944
2016-06-28T02:37:35.516Z,944
2016-06-28T02:38:05.519Z,944
2016-06-28T02:38:35.539Z,944
2016-06-28T02:39:05.541Z,944
2016-06-28T02:39:35.562Z,949
2016-06-28T02:40:05.579Z,954
2016-06-28T02:40:35.584Z,954
2016-06-28T02:41:05.607Z,954
2016-06-28T02:41:35.634Z,954
2016-06-28T02:42:05.627Z,960
2016-06-28T02:42:35.652Z,960
2016-06-28T02:43:05.662Z,965
2016-06-28T02:43:35.690Z,965
2016-06-28T02:44:05.689Z,965
2016-06-28T02:44:35.700Z,965
2016-06-28T02:45:05.717Z,965
2016-06-28T02:45:35.753Z,965
2016-06-28T02:46:05.757Z,965
2016-06-28T02:46:35.777Z,970
2016-06-28T02:47:05.778Z,970
2016-06-28T02:47:35.800Z,970
2016-06-28T02:48:05.814Z,970
2016-06-28T02:48:35.821Z,970
2016-06-28T02:49:05.833Z,970
2016-06-28T02:49:35.858Z,970
2016-06-28T02:50:05.870Z,970
2016-06-28T02:50:35.278Z,970
2016-06-28T02:51:05.888Z,965
2016-06-28T02:51:35.909Z,965
2016-06-28T02:52:05.910Z,965
2016-06-28T02:52:35.933Z,965
2016-06-28T02:53:05.941Z,965
2016-06-28T02:53:35.963Z,965
2016-06-28T02:54:05.982Z,965
2016-06-28T02:54:35.997Z,965
2016-06-28T02:55:06.009Z,965
2016-06-28T02:55:36.020Z,965
2016-06-28T02:56:06.033Z,965
2016-06-28T02:56:36.059Z,965
2016-06-28T02:57:06.069Z,965
2016-06-28T02:57:36.094Z,965
2016-06-28T02:58:06.115Z,965
2016-06-28T02:58:36.120Z,965
2016-06-28T02:59:06.119Z,965
2016-06-28T02:59:36.142Z,965
2016-06-28T03:00:06.154Z,965
2016-06-28T03:00:36.167Z,970
2016-06-28T03:01:06.177Z,970
2016-06-28T03:01:36.203Z,970
2016-06-28T03:02:06.210Z,970
2016-06-28T03:02:36.247Z,970
2016-06-28T03:03:06.238Z,970
2016-06-28T03:03:36.256Z,970
2016-06-28T03:04:06.275Z,970
2016-06-28T03:04:36.284Z,970
2016-06-28T03:05:06.300Z,970
2016-06-28T03:05:36.311Z,970
2016-06-28T03:06:06.320Z,970
2016-06-28T03:06:36.338Z,970
2016-06-28T03:07:06.357Z,970
2016-06-28T03:07:36.371Z,970
2016-06-28T03:08:06.419Z,970
2016-06-28T03:08:36.411Z,965
2016-06-28T03:09:06.409Z,965
2016-06-28T03:09:36.428Z,965
2016-06-28T03:10:06.453Z,965
2016-06-28T03:10:36.460Z,960
2016-06-28T03:11:06.466Z,960
2016-06-28T03:11:36.489Z,960
2016-06-28T03:12:06.501Z,960
2016-06-28T03:12:36.512Z,960
2016-06-28T03:13:06.541Z,960
2016-06-28T03:13:36.542Z,960
2016-06-28T03:14:06.562Z,960
2016-06-28T03:14:36.572Z,960
2016-06-28T03:15:06.589Z,960
2016-06-28T03:15:36.613Z,960
2016-06-28T03:16:06.615Z,960
2016-06-28T03:16:36.635Z,960
2016-06-28T03:17:06.637Z,960
2016-06-28T03:17:36.663Z,960
2016-06-28T03:18:06.675Z,960
2016-06-28T03:18:36.083Z,960
2016-06-28T03:19:06.694Z,960
2016-06-28T03:19:36.715Z,960
2016-06-28T03:20:06.733Z,960
2016-06-28T03:20:36.744Z,960
2016-06-28T03:21:06.758Z,960
2016-06-28T03:21:36.785Z,960
2016-06-28T03:22:06.787Z,960
2016-06-28T03:22:36.802Z,960
2016-06-28T03:23:06.826Z,960
2016-06-28T03:23:36.837Z,960
2016-06-28T03:24:06.853Z,960
2016-06-28T03:24:36.864Z,960
2016-06-28T03:25:06.887Z,960
2016-06-28T03:25:36.892Z,960
2016-06-28T03:26:06.901Z,960
2016-06-28T03:26:36.926Z,960
2016-06-28T03:27:06.943Z,960
2016-06-28T03:27:36.948Z,960
2016-06-28T03:28:06.970Z,965
2016-06-28T03:28:36.987Z,965
2016-06-28T03:29:06.995Z,965
2016-06-28T03:29:37.016Z,965
2016-06-28T03:30:07.036Z,965
2016-06-28T03:30:37.042Z,969
2016-06-28T03:31:07.047Z,975
2016-06-28T03:31:37.073Z,975
2016-06-28T03:32:07.075Z,975
2016-06-28T03:32:37.090Z,975
2016-06-28T03:33:07.118Z,975
2016-06-28T03:33:37.130Z,975
2016-06-28T03:34:07.132Z,975
2016-06-28T03:34:37.158Z,975
2016-06-28T03:35:07.162Z,975
2016-06-28T03:35:37.192Z,980
2016-06-28T03:36:07.194Z,980
2016-06-28T03:36:37.214Z,980
2016-06-28T03:37:07.239Z,980
2016-06-28T03:37:37.250Z,980
2016-06-28T03:38:07.254Z,980
2016-06-28T03:38:37.267Z,980
2016-06-28T03:39:06.684Z,980
2016-06-28T03:39:37.299Z,980
2016-06-28T03:40:07.315Z,980
2016-06-28T03:40:37.331Z,980
2016-06-28T03:41:07.335Z,980
2016-06-28T03:41:37.360Z,980
2016-06-28T03:42:07.378Z,980
2016-06-28T03:42:37.378Z,980
2016-06-28T03:43:07.401Z,980
2016-06-28T03:43:37.418Z,985
2016-06-28T03:44:07.429Z,985
2016-06-28T03:44:37.438Z,985
2016-06-28T03:45:07.471Z,985
2016-06-28T03:45:37.479Z,985
2016-06-28T03:46:07.486Z,985
2016-06-28T03:46:37.521Z,985
2016-06-28T03:47:07.529Z,991
2016-06-28T03:47:37.552Z,991
2016-06-28T03:48:07.563Z,991
2016-06-28T03:48:37.568Z,991
2016-06-28T03:49:07.585Z,991
2016-06-28T03:49:37.607Z,991
2016-06-28T03:50:07.624Z,991
2016-06-28T03:50:37.626Z,991
2016-06-28T03:51:07.640Z,991
2016-06-28T03:51:37.653Z,991
2016-06-28T03:52:07.674Z,1001
2016-06-28T03:52:37.678Z,1001
2016-06-28T03:53:07.688Z,1001
2016-06-28T03:53:37.710Z,1001
2016-06-28T03:54:07.715Z,1001
2016-06-28T03:54:37.736Z,1001
2016-06-28T03:55:07.750Z,1001
2016-06-28T03:55:37.763Z,1007
2016-06-28T03:56:07.770Z,1007
2016-06-28T03:56:37.805Z,1007
2016-06-28T03:57:07.821Z,1007
2016-06-28T03:57:37.822Z,1007
2016-06-28T03:58:07.847Z,1007
2016-06-28T03:58:37.855Z,1007
2016-06-28T03:59:07.868Z,1007
2016-06-28T03:59:37.873Z,1007
2016-06-28T04:00:07.925Z,1007
2016-06-28T04:00:37.911Z,1007
2016-06-28T04:01:07.925Z,1007
2016-06-28T04:01:37.931Z,1007
2016-06-28T04:02:07.336Z,1007
2016-06-28T04:02:37.965Z,1007
2016-06-28T04:03:07.987Z,1007
2016-06-28T04:03:37.988Z,1007
2016-06-28T04:04:08.004Z,1007
2016-06-28T04:04:38.017Z,1007
2016-06-28T04:05:08.036Z,1007
2016-06-28T04:05:38.051Z,1007
2016-06-28T04:06:08.070Z,1007
2016-06-28T04:06:38.084Z,1007
2016-06-28T04:07:08.089Z,1007
2016-06-28T04:07:38.109Z,1007
2016-06-28T04:08:08.118Z,1002
2016-06-28T04:08:38.134Z,1002
2016-06-28T04:09:08.156Z,1002
2016-06-28T04:09:38.161Z,1002
2016-06-28T04:10:08.184Z,1002
2016-06-28T04:10:38.195Z,996
2016-06-28T04:11:08.208Z,996
2016-06-28T04:11:38.229Z,996
2016-06-28T04:12:08.245Z,996
2016-06-28T04:12:38.251Z,996
2016-06-28T04:13:08.258Z,996
2016-06-28T04:13:38.276Z,996
2016-06-28T04:14:08.325Z,991
2016-06-28T04:14:38.307Z,986
2016-06-28T04:15:08.326Z,986
2016-06-28T04:15:38.349Z,986
2016-06-28T04:16:08.361Z,986
2016-06-28T04:16:38.359Z,986
2016-06-28T04:17:08.384Z,986
2016-06-28T04:17:38.397Z,986
2016-06-28T04:18:08.425Z,975
2016-06-28T04:18:38.434Z,975
2016-06-28T04:19:08.452Z,975
2016-06-28T04:19:38.457Z,975
2016-06-28T04:20:08.471Z,975
2016-06-28T04:20:38.483Z,975
2016-06-28T04:21:08.507Z,970
2016-06-28T04:21:38.530Z,970
2016-06-28T04:22:08.530Z,970
2016-06-28T04:22:38.539Z,959
2016-06-28T04:23:07.961Z,959
2016-06-28T04:23:38.577Z,959
2016-06-28T04:24:08.608Z,959
2016-06-28T04:24:38.601Z,959
2016-06-28T04:25:08.620Z,948
2016-06-28T04:25:38.637Z,948
2016-06-28T04:26:08.641Z,938
2016-06-28T04:26:38.669Z,938
2016-06-28T04:27:08.679Z,938
2016-06-28T04:27:38.685Z,932
2016-06-28T04:28:08.713Z,932
2016-06-28T04:28:38.719Z,927
2016-06-28T04:29:08.732Z,927
2016-06-28T04:29:38.755Z,927
2016-06-28T04:30:08.786Z,921
2016-06-28T04:30:38.792Z,912
2016-06-28T04:31:08.789Z,912
2016-06-28T04:31:38.811Z,912
2016-06-28T04:32:08.833Z,912
2016-06-28T04:32:38.247Z,912
2016-06-28T04:33:08.851Z,897
2016-06-28T04:33:38.872Z,897
2016-06-28T04:34:08.890Z,897
2016-06-28T04:34:38.911Z,897
2016-06-28T04:35:08.911Z,897
2016-06-28T04:35:41.455Z,897
2016-06-28T04:36:11.514Z,897
2016-06-28T04:36:38.968Z,897
2016-06-28T04:37:11.458Z,897
2016-06-28T04:37:41.476Z,897
2016-06-28T04:38:09.010Z,897
2016-06-28T04:38:41.699Z,897
2016-06-28T04:39:11.483Z,897
2016-06-28T04:39:40.400Z,897
2016-06-28T04:40:09.056Z,897
2016-06-28T04:40:41.667Z,897
2016-06-28T04:41:09.086Z,897
2016-06-28T04:41:41.787Z,897
2016-06-28T04:42:11.907Z,897
2016-06-28T04:42:41.630Z,897
2016-06-28T04:43:11.669Z,897
2016-06-28T04:43:41.806Z,897
2016-06-28T04:44:11.710Z,897
2016-06-28T04:44:41.841Z,897
2016-06-28T04:45:11.853Z,897
2016-06-28T04:45:41.391Z,1148
2016-06-28T04:46:11.741Z,1148
2016-06-28T04:46:41.634Z,1148
2016-06-28T04:47:11.695Z,1148
2016-06-28T04:47:42.101Z,1148
2016-06-28T04:48:11.318Z,1148
2016-06-28T04:48:41.805Z,1148
2016-06-28T04:49:12.006Z,1148
2016-06-28T04:49:41.890Z,1148
2016-06-28T04:50:12.211Z,1148
2016-06-28T04:50:41.307Z,1148
2016-06-28T04:51:11.966Z,1148
2016-06-28T04:51:42.057Z,1148
2016-06-28T04:52:12.039Z,1148
2016-06-28T04:52:42.451Z,1148
2016-06-28T04:53:12.038Z,1148
2016-06-28T04:53:42.251Z,1148
2016-06-28T04:54:11.983Z,1148
2016-06-28T04:54:42.167Z,1148
2016-06-28T04:55:12.028Z,1148
2016-06-28T04:55:41.534Z,1148
2016-06-28T04:56:09.718Z,1148
2016-06-28T04:56:41.010Z,1148
2016-06-28T04:57:12.141Z,1148
2016-06-28T04:57:41.730Z,1148
2016-06-28T04:58:11.987Z,1148
2016-06-28T04:58:41.612Z,1148
2016-06-28T04:59:11.630Z,1148
2016-06-28T04:59:41.851Z,897
2016-06-28T05:00:11.671Z,897
2016-06-28T05:00:42.535Z,897
2016-06-28T05:01:09.742Z,897
2016-06-28T05:01:39.697Z,897
2016-06-28T05:02:09.716Z,897
2016-06-28T05:02:39.732Z,897
2016-06-28T05:03:09.757Z,897
2016-06-28T05:03:39.775Z,897
2016-06-28T05:04:09.828Z,897
2016-06-28T05:04:39.801Z,897
2016-06-28T05:05:09.812Z,897
2016-06-28T05:05:39.814Z,897
2016-06-28T05:06:09.826Z,897
2016-06-28T05:06:39.848Z,897
2016-06-28T05:07:09.865Z,897
2016-06-28T05:07:39.891Z,902
2016-06-28T05:08:09.890Z,902
2016-06-28T05:08:39.914Z,902
2016-06-28T05:09:09.926Z,902
2016-06-28T05:09:39.931Z,902
2016-06-28T05:10:09.954Z,897
2016-06-28T05:10:39.967Z,1148
2016-06-28T05:11:10.018Z,1133
2016-06-28T05:11:39.985Z,1119
2016-06-28T05:12:10.015Z,1109
2016-06-28T05:12:40.029Z,1100
2016-06-28T05:13:10.042Z,1086
2016-06-28T05:13:40.056Z,1086
2016-06-28T05:14:10.071Z,1081
2016-06-28T05:14:40.102Z,1076
2016-06-28T05:15:10.098Z,1076
2016-06-28T05:15:40.130Z,1076
2016-06-28T05:16:10.126Z,1076
2016-06-28T05:16:40.162Z,1076
2016-06-28T05:17:10.166Z,1076
2016-06-28T05:17:39.574Z,1076
2016-06-28T05:18:10.202Z,1076
2016-06-28T05:18:40.208Z,1076
2016-06-28T05:19:10.219Z,1076
2016-06-28T05:19:40.246Z,1076
2016-06-28T05:20:10.257Z,1076
2016-06-28T05:20:40.274Z,1076
2016-06-28T05:21:10.289Z,1076
2016-06-28T05:21:40.309Z,1076
2016-06-28T05:22:10.324Z,1076
2016-06-28T05:22:40.342Z,1076
2016-06-28T05:23:10.343Z,1076
2016-06-28T05:23:40.359Z,1076
2016-06-28T05:24:10.378Z,1076
2016-06-28T05:24:40.388Z,1076
2016-06-28T05:25:10.402Z,1076
2016-06-28T05:25:40.417Z,1076
2016-06-28T05:26:10.435Z,1076
2016-06-28T05:26:40.463Z,1076
2016-06-28T05:27:10.491Z,1076
2016-06-28T05:27:40.486Z,1076
2016-06-28T05:28:10.506Z,1076
2016-06-28T05:28:40.524Z,1076
2016-06-28T05:29:10.531Z,1076
2016-06-28T05:29:40.542Z,1076
2016-06-28T05:30:10.576Z,1076
2016-06-28T05:30:40.578Z,1076
2016-06-28T05:31:10.598Z,1076
2016-06-28T05:31:40.599Z,1076
2016-06-28T05:32:10.622Z,1081
2016-06-28T05:32:40.650Z,1081
2016-06-28T05:33:10.670Z,1085
2016-06-28T05:33:40.666Z,1085
2016-06-28T05:34:10.691Z,1085
2016-06-28T05:34:40.707Z,1085
2016-06-28T05:35:10.712Z,1085
2016-06-28T05:35:40.725Z,1085
2016-06-28T05:36:10.743Z,1085
2016-06-28T05:36:40.762Z,1085
2016-06-28T05:37:10.769Z,1081
2016-06-28T05:37:40.815Z,1081
2016-06-28T05:38:10.816Z,1081
2016-06-28T05:38:40.826Z,1081
2016-06-28T05:39:10.831Z,1081
2016-06-28T05:39:40.853Z,1081
2016-06-28T05:40:10.879Z,1081
2016-06-28T05:40:40.891Z,1081
2016-06-28T05:41:10.915Z,1081
2016-06-28T05:41:40.916Z,1081
2016-06-28T05:42:10.933Z,1081
2016-06-28T05:42:40.946Z,1081
2016-06-28T05:43:10.962Z,1081
2016-06-28T05:43:40.973Z,1081
2016-06-28T05:44:10.997Z,1081
2016-06-28T05:44:41.011Z,1076
2016-06-28T05:45:11.025Z,1076
2016-06-28T05:45:41.040Z,1068
2016-06-28T05:46:11.060Z,1063
2016-06-28T05:46:41.069Z,1059
2016-06-28T05:47:11.081Z,1059
2016-06-28T05:47:41.103Z,1059
2016-06-28T05:48:11.106Z,1054
2016-06-28T05:48:41.129Z,1054
2016-06-28T05:49:11.150Z,1054
2016-06-28T05:49:41.158Z,1054
2016-06-28T05:50:11.179Z,1046
2016-06-28T05:50:41.190Z,1036
2016-06-28T05:51:11.222Z,1036
2016-06-28T05:51:41.229Z,1036
2016-06-28T05:52:11.230Z,1027
2016-06-28T05:52:41.254Z,1027
2016-06-28T05:53:11.262Z,1027
2016-06-28T05:53:41.304Z,1027
2016-06-28T05:54:11.295Z,1027
2016-06-28T05:54:41.306Z,1027
2016-06-28T05:55:11.326Z,1027
2016-06-28T05:55:41.358Z,763
2016-06-28T05:56:11.365Z,763
2016-06-28T05:56:41.371Z,763
2016-06-28T05:57:11.388Z,763
2016-06-28T05:57:41.451Z,763
2016-06-28T05:58:11.439Z,763
2016-06-28T05:58:41.435Z,763
2016-06-28T05:59:11.469Z,763
2016-06-28T05:59:41.463Z,763
2016-06-28T06:00:11.486Z,763
2016-06-28T06:00:41.499Z,763
2016-06-28T06:01:11.512Z,763
2016-06-28T06:01:41.547Z,763
2016-06-28T06:02:11.539Z,759
2016-06-28T06:02:41.558Z,759
2016-06-28T06:03:11.570Z,759
2016-06-28T06:03:41.604Z,759
2016-06-28T06:04:11.823Z,759
2016-06-28T06:04:41.615Z,755
2016-06-28T06:05:11.637Z,751
2016-06-28T06:05:41.644Z,751
2016-06-28T06:06:11.678Z,751
2016-06-28T06:06:41.680Z,751
2016-06-28T06:07:11.699Z,751
2016-06-28T06:07:41.711Z,746
2016-06-28T06:08:11.733Z,746
2016-06-28T06:08:41.751Z,746
2016-06-28T06:09:11.753Z,746
2016-06-28T06:09:41.775Z,746
2016-06-28T06:10:11.792Z,746
2016-06-28T06:10:41.807Z,746
2016-06-28T06:11:11.824Z,742
2016-06-28T06:11:41.836Z,742
2016-06-28T06:12:11.846Z,742
2016-06-28T06:12:41.863Z,738
2016-06-28T06:13:11.883Z,738
2016-06-28T06:13:41.906Z,728
2016-06-28T06:14:11.910Z,728
2016-06-28T06:14:41.930Z,728
2016-06-28T06:15:11.962Z,728
2016-06-28T06:15:41.971Z,724
2016-06-28T06:16:11.990Z,724
2016-06-28T06:16:41.999Z,724
2016-06-28T06:17:12.009Z,720
2016-06-28T06:17:42.033Z,720
2016-06-28T06:18:12.038Z,720
2016-06-28T06:18:42.057Z,720
2016-06-28T06:19:12.090Z,716
2016-06-28T06:19:42.081Z,716
2016-06-28T06:20:12.103Z,716
2016-06-28T06:20:42.118Z,712
2016-06-28T06:21:12.127Z,712
2016-06-28T06:21:42.173Z,703
2016-06-28T06:22:12.195Z,699
2016-06-28T06:22:42.191Z,691
2016-06-28T06:23:12.209Z,670
2016-06-28T06:23:42.219Z,662
2016-06-28T06:24:12.239Z,658
2016-06-28T06:24:42.248Z,646
2016-06-28T06:25:12.278Z,887
2016-06-28T06:25:42.303Z,879
2016-06-28T06:26:11.698Z,864
2016-06-28T06:26:42.320Z,853
2016-06-28T06:27:12.330Z,834
2016-06-28T06:27:42.357Z,827
2016-06-28T06:28:12.371Z,804
2016-06-28T06:28:42.384Z,782
2016-06-28T06:29:12.409Z,775
2016-06-28T06:29:42.433Z,768
2016-06-28T06:30:11.830Z,498
2016-06-28T06:30:42.448Z,492
2016-06-28T06:31:12.497Z,482
2016-06-28T06:31:42.486Z,479
2016-06-28T06:32:12.531Z,479
2016-06-28T06:32:42.526Z,479
2016-06-28T06:33:12.543Z,469
2016-06-28T06:33:42.551Z,469
2016-06-28T06:34:12.576Z,466
2016-06-28T06:34:42.595Z,463
2016-06-28T06:35:12.620Z,450
2016-06-28T06:35:42.628Z,450
2016-06-28T06:36:12.648Z,428
2016-06-28T06:36:42.663Z,414
2016-06-28T06:37:12.681Z,399
2016-06-28T06:37:42.689Z,634
2016-06-28T06:38:12.722Z,632
2016-06-28T06:38:42.743Z,623
2016-06-28T06:39:12.762Z,615
2016-06-28T06:39:42.768Z,615
2016-06-28T06:40:12.786Z,617
2016-06-28T06:40:42.819Z,612
2016-06-28T06:41:12.832Z,601
2016-06-28T06:41:42.858Z,582
2016-06-28T06:42:12.865Z,582
2016-06-28T06:42:42.887Z,590
2016-06-28T06:43:12.897Z,600
2016-06-28T06:43:42.927Z,587
2016-06-28T06:44:12.941Z,582
2016-06-28T06:44:42.967Z,571
2016-06-28T06:45:12.986Z,571
2016-06-28T06:45:42.997Z,565
2016-06-28T06:46:13.056Z,562
2016-06-28T06:46:43.046Z,549